Terminal Aerodrome Forecast
Issued by NWS Lake Charles, LA

Home | Current Version | Previous Version | Text Only | Print | Product List | Glossary On
Versions: 1 2 3 4 5 6 7 8 9 10 11 12 13
762
FTUS44 KLCH 250520
TAFLFT
TAF
KLFT 250520Z 2506/2606 VRB03KT P6SM SKC
     FM251400 07005KT P6SM SCT030
     FM251900 07007KT P6SM VCTS SCT040CB
     FM260200 VRB03KT P6SM SKC=

USA.gov is the U.S. government's official web portal to all federal, state and local government web resources and services.